createdAt,value
2023-05-18T00:00:29.341Z,6.80
2023-05-18T00:03:00.074Z,6.93
2023-05-18T00:05:35.574Z,6.95
2023-05-18T00:08:05.698Z,7.00
2023-05-18T00:10:35.693Z,6.85
2023-05-18T00:13:06.922Z,6.30
2023-05-18T00:15:36.738Z,6.60
2023-05-18T00:18:07.005Z,6.65
2023-05-18T00:20:38.603Z,6.10
2023-05-18T00:23:18.127Z,6.43
2023-05-18T00:25:47.896Z,6.22
2023-05-18T00:28:17.813Z,6.20
2023-05-18T00:30:48.748Z,6.28
2023-05-18T00:33:18.473Z,6.15
2023-05-18T00:35:48.832Z,6.88
2023-05-18T00:38:19.406Z,6.32
2023-05-18T00:40:49.116Z,6.28
2023-05-18T00:43:19.837Z,8.38
2023-05-18T00:45:49.605Z,7.00
2023-05-18T00:48:19.859Z,6.68
2023-05-18T00:50:49.685Z,6.78
2023-05-18T00:53:19.398Z,6.80
2023-05-18T00:55:49.204Z,6.03
2023-05-18T00:58:19.122Z,6.10
2023-05-18T01:00:48.840Z,6.35
2023-05-18T01:03:22.118Z,6.72
2023-05-18T01:05:57.256Z,6.32
2023-05-18T01:08:27.550Z,5.75
2023-05-18T01:11:02.380Z,6.00
2023-05-18T01:13:43.710Z,6.07
2023-05-18T01:16:17.531Z,6.47
2023-05-18T01:18:56.523Z,6.32
2023-05-18T01:22:06.728Z,6.25
2023-05-18T01:24:50.138Z,6.22
2023-05-18T01:27:23.091Z,6.22
2023-05-18T01:29:53.891Z,5.82
2023-05-18T01:32:24.013Z,5.85
2023-05-18T01:34:53.829Z,5.90
2023-05-18T01:37:23.945Z,5.78
2023-05-18T01:39:53.647Z,5.97
2023-05-18T01:42:25.249Z,6.05
2023-05-18T01:44:57.320Z,5.82
2023-05-18T01:47:27.206Z,5.70
2023-05-18T01:50:05.067Z,5.55
2023-05-18T01:52:48.620Z,5.55
2023-05-18T01:55:18.326Z,6.28
2023-05-18T01:57:48.545Z,5.95
2023-05-18T02:00:21.314Z,6.15
2023-05-18T02:02:51.246Z,6.05
2023-05-18T02:05:21.518Z,5.95
2023-05-18T02:07:51.550Z,5.88
2023-05-18T02:10:21.397Z,5.57
2023-05-18T02:12:55.203Z,6.45
2023-05-18T02:15:24.947Z,6.55
2023-05-18T02:17:59.626Z,5.93
2023-05-18T02:20:34.609Z,5.97
2023-05-18T02:23:04.823Z,6.22
2023-05-18T02:25:34.744Z,6.00
2023-05-18T02:28:04.543Z,5.72
2023-05-18T02:30:34.908Z,5.90
2023-05-18T02:33:07.073Z,5.43
2023-05-18T02:35:39.528Z,5.88
2023-05-18T02:38:09.349Z,5.65
2023-05-18T02:40:41.802Z,6.00
2023-05-18T02:43:11.545Z,6.10
2023-05-18T02:45:41.319Z,5.90
2023-05-18T02:48:11.122Z,5.85
2023-05-18T02:50:40.932Z,5.70
2023-05-18T02:53:10.726Z,5.40
2023-05-18T02:55:41.228Z,5.57
2023-05-18T02:58:11.337Z,5.35
2023-05-18T03:00:41.254Z,5.63
2023-05-18T03:03:17.342Z,6.38
2023-05-18T03:05:47.396Z,5.72
2023-05-18T03:08:17.093Z,5.90
2023-05-18T03:10:47.133Z,5.72
2023-05-18T03:13:17.121Z,5.20
2023-05-18T03:15:50.796Z,5.10
2023-05-18T03:18:23.270Z,5.55
2023-05-18T03:20:54.871Z,5.03
2023-05-18T03:23:24.683Z,5.57
2023-05-18T03:25:57.102Z,5.50
2023-05-18T03:28:27.992Z,5.55
2023-05-18T03:31:08.565Z,5.22
2023-05-18T03:33:38.407Z,5.07
2023-05-18T03:36:08.458Z,5.65
2023-05-18T03:38:38.223Z,4.90
2023-05-18T03:41:07.980Z,5.45
2023-05-18T03:43:37.730Z,5.20
2023-05-18T03:46:08.204Z,5.45
2023-05-18T03:48:40.834Z,5.25
2023-05-18T03:51:16.223Z,5.40
2023-05-18T03:56:18.624Z,5.38
2023-05-18T03:58:48.340Z,5.45
2023-05-18T04:01:21.838Z,5.50
2023-05-18T04:03:53.028Z,5.35
2023-05-18T04:06:25.134Z,5.90
2023-05-18T04:08:56.316Z,5.40
2023-05-18T04:11:26.054Z,5.38
2023-05-18T04:13:56.117Z,5.63
2023-05-18T04:16:26.595Z,5.40
2023-05-18T04:18:56.575Z,5.72
2023-05-18T04:21:26.937Z,6.20
2023-05-18T04:24:00.733Z,6.15
2023-05-18T04:26:30.427Z,6.10
2023-05-18T04:29:02.140Z,6.32
2023-05-18T04:31:32.152Z,5.75
2023-05-18T04:34:03.040Z,5.75
2023-05-18T04:36:32.696Z,6.18
2023-05-18T04:39:09.386Z,6.10
2023-05-18T04:41:39.185Z,6.75
2023-05-18T04:44:09.073Z,6.53
2023-05-18T04:46:41.435Z,6.30
2023-05-18T04:49:14.497Z,6.63
2023-05-18T04:51:44.889Z,6.47
2023-05-18T04:54:14.665Z,6.72
2023-05-18T04:56:44.625Z,6.50
2023-05-18T04:59:14.468Z,6.25
2023-05-18T05:01:44.275Z,7.03
2023-05-18T05:04:15.084Z,6.45
2023-05-18T05:06:47.874Z,6.50
2023-05-18T05:09:17.998Z,6.60
2023-05-18T05:11:48.367Z,6.05
2023-05-18T05:14:18.986Z,6.47
2023-05-18T05:16:48.681Z,6.15
2023-05-18T05:19:18.838Z,6.40
2023-05-18T05:21:48.554Z,6.53
2023-05-18T05:24:18.228Z,6.07
2023-05-18T05:26:47.926Z,6.35
2023-05-18T05:29:17.651Z,5.88
2023-05-18T05:31:47.519Z,6.38
2023-05-18T05:34:17.360Z,6.25
2023-05-18T05:36:47.067Z,6.55
2023-05-18T05:39:16.834Z,5.93
2023-05-18T05:41:46.574Z,6.32
2023-05-18T05:44:19.323Z,5.85
2023-05-18T05:46:49.026Z,5.63
2023-05-18T05:49:18.694Z,5.22
2023-05-18T05:51:48.364Z,5.63
2023-05-18T05:54:18.424Z,6.05
2023-05-18T05:56:49.248Z,5.63
2023-05-18T05:59:18.951Z,5.80
2023-05-18T06:01:49.098Z,5.28
2023-05-18T06:04:18.875Z,5.25
2023-05-18T06:06:50.068Z,5.55
2023-05-18T06:09:22.866Z,5.30
2023-05-18T06:11:55.344Z,5.47
2023-05-18T06:14:25.063Z,5.45
2023-05-18T06:16:54.862Z,5.28
2023-05-18T06:19:24.839Z,5.72
2023-05-18T06:21:54.646Z,5.43
2023-05-18T06:24:25.151Z,5.20
2023-05-18T06:26:55.239Z,5.38
2023-05-18T06:29:25.112Z,5.38
2023-05-18T06:31:55.263Z,5.65
2023-05-18T06:34:25.078Z,4.97
2023-05-18T06:36:54.776Z,5.32
2023-05-18T06:39:24.539Z,5.70
2023-05-18T06:41:54.588Z,5.03
2023-05-18T06:44:24.295Z,5.05
2023-05-18T06:46:54.040Z,4.80
2023-05-18T06:49:24.127Z,5.65
2023-05-18T06:51:54.254Z,5.13
2023-05-18T06:54:24.352Z,5.03
2023-05-18T06:56:54.153Z,5.18
2023-05-18T06:59:24.645Z,5.18
2023-05-18T07:01:54.353Z,5.03
2023-05-18T07:04:24.715Z,4.93
2023-05-18T07:06:57.789Z,4.57
2023-05-18T07:09:29.017Z,4.72
2023-05-18T07:12:01.325Z,4.93
2023-05-18T07:14:31.762Z,5.10
2023-05-18T07:17:01.549Z,4.88
2023-05-18T07:19:31.419Z,4.50
2023-05-18T07:22:01.210Z,4.88
2023-05-18T07:24:30.923Z,4.85
2023-05-18T07:27:01.729Z,4.88
2023-05-18T07:29:32.044Z,4.75
2023-05-18T07:32:01.717Z,4.90
2023-05-18T07:34:31.515Z,4.88
2023-05-18T07:37:01.294Z,4.80
2023-05-18T07:39:31.143Z,4.78
2023-05-18T07:42:01.398Z,5.22
2023-05-18T07:44:31.194Z,4.28
2023-05-18T07:47:00.991Z,4.70
2023-05-18T07:49:31.213Z,4.95
2023-05-18T07:52:02.415Z,4.45
2023-05-18T07:54:32.150Z,4.72
2023-05-18T07:57:01.840Z,4.63
2023-05-18T07:59:31.994Z,4.53
2023-05-18T08:02:03.655Z,4.93
2023-05-18T08:04:33.417Z,4.50
2023-05-18T08:07:03.683Z,4.30
2023-05-18T08:09:33.774Z,4.53
2023-05-18T08:12:03.525Z,4.47
2023-05-18T08:14:33.327Z,4.72
2023-05-18T08:17:03.111Z,4.45
2023-05-18T08:19:33.158Z,4.63
2023-05-18T08:22:04.066Z,4.15
2023-05-18T08:24:34.834Z,4.90
2023-05-18T08:27:05.164Z,4.50
2023-05-18T08:29:37.827Z,4.40
2023-05-18T08:32:10.778Z,4.22
2023-05-18T08:34:43.215Z,4.57
2023-05-18T08:37:12.936Z,4.55
2023-05-18T08:39:42.760Z,4.15
2023-05-18T08:42:29.513Z,4.13
2023-05-18T08:45:26.256Z,4.38
2023-05-18T08:47:56.287Z,4.28
2023-05-18T08:50:26.122Z,4.20
2023-05-18T08:52:58.622Z,4.55
2023-05-18T08:55:29.738Z,4.70
2023-05-18T08:58:01.908Z,4.47
2023-05-18T09:00:32.116Z,4.53
2023-05-18T09:03:04.403Z,4.65
2023-05-18T09:05:34.484Z,4.60
2023-05-18T09:08:05.160Z,4.75
2023-05-18T09:10:35.285Z,4.00
2023-05-18T09:13:05.942Z,4.40
2023-05-18T09:15:39.118Z,4.53
2023-05-18T09:18:09.012Z,4.25
2023-05-18T09:20:38.756Z,4.07
2023-05-18T09:23:09.217Z,4.70
2023-05-18T09:25:38.982Z,4.22
2023-05-18T09:28:08.746Z,3.88
2023-05-18T09:30:45.710Z,4.20
2023-05-18T09:33:20.861Z,4.18
2023-05-18T09:38:23.463Z,4.45
2023-05-18T09:40:53.346Z,4.20
2023-05-18T09:43:23.277Z,4.10
2023-05-18T09:45:55.922Z,4.38
2023-05-18T09:48:26.874Z,4.38
2023-05-18T09:50:56.654Z,4.20
2023-05-18T09:53:26.396Z,4.80
2023-05-18T09:55:56.147Z,4.05
2023-05-18T09:58:26.747Z,4.35
2023-05-18T10:00:58.467Z,4.32
2023-05-18T10:03:28.340Z,4.38
2023-05-18T10:05:58.056Z,4.35
2023-05-18T10:08:27.836Z,4.10
2023-05-18T10:10:57.800Z,4.15
2023-05-18T10:13:28.993Z,4.00
2023-05-18T10:16:00.778Z,4.35
2023-05-18T10:18:32.049Z,4.35
2023-05-18T10:21:03.936Z,4.72
2023-05-18T10:23:35.160Z,4.68
2023-05-18T10:26:09.983Z,4.15
2023-05-18T10:28:49.954Z,4.97
2023-05-18T10:31:20.227Z,4.50
2023-05-18T10:33:50.042Z,4.28
2023-05-18T10:36:20.095Z,4.00
2023-05-18T10:38:49.885Z,4.30
2023-05-18T10:41:19.653Z,4.28
2023-05-18T10:43:49.750Z,4.80
2023-05-18T10:46:20.037Z,4.40
2023-05-18T10:48:50.019Z,3.63
2023-05-18T10:51:20.582Z,4.40
2023-05-18T10:53:52.825Z,4.15
2023-05-18T10:56:24.957Z,4.63
2023-05-18T10:58:55.409Z,4.30
2023-05-18T11:01:25.133Z,4.07
2023-05-18T11:03:54.887Z,4.30
2023-05-18T11:06:26.334Z,3.90
2023-05-18T11:08:56.128Z,4.10
2023-05-18T11:11:28.427Z,3.92
2023-05-18T11:14:04.040Z,4.30
2023-05-18T11:16:38.582Z,4.70
2023-05-18T11:19:09.068Z,4.30
2023-05-18T11:21:38.872Z,4.97
2023-05-18T11:24:18.355Z,4.75
2023-05-18T11:26:49.911Z,4.38
2023-05-18T11:29:20.328Z,4.50
2023-05-18T11:31:55.691Z,4.47
2023-05-18T11:37:20.514Z,4.78
2023-05-18T11:40:01.650Z,5.72
2023-05-18T11:42:37.533Z,4.75
2023-05-18T11:45:14.558Z,5.03
2023-05-18T11:47:44.773Z,5.70
2023-05-18T11:50:14.828Z,5.57
2023-05-18T11:52:52.802Z,5.40
2023-05-18T11:55:23.081Z,5.82
2023-05-18T11:57:56.595Z,5.38
2023-05-18T12:00:26.323Z,5.43
2023-05-18T12:02:56.336Z,5.53
2023-05-18T12:05:26.174Z,5.57
2023-05-18T12:07:56.184Z,5.80
2023-05-18T12:10:25.947Z,5.55
2023-05-18T12:12:55.748Z,5.93
2023-05-18T12:15:26.410Z,5.85
2023-05-18T12:17:56.119Z,5.47
2023-05-18T12:20:30.003Z,5.75
2023-05-18T12:23:00.169Z,6.05
2023-05-18T12:25:30.239Z,5.88
2023-05-18T12:28:03.713Z,6.00
2023-05-18T12:30:36.685Z,6.00
2023-05-18T12:33:08.617Z,6.28
2023-05-18T12:35:38.432Z,6.43
2023-05-18T12:38:16.915Z,5.70
2023-05-18T12:40:50.564Z,5.90
2023-05-18T12:43:20.428Z,5.88
2023-05-18T12:45:50.482Z,6.25
2023-05-18T12:48:20.258Z,6.53
2023-05-18T12:50:50.874Z,6.90
2023-05-18T12:53:21.052Z,6.68
2023-05-18T12:56:03.307Z,6.72
2023-05-18T12:58:34.464Z,6.90
2023-05-18T13:01:10.907Z,6.68
2023-05-18T13:03:43.967Z,6.25
2023-05-18T13:06:13.807Z,7.28
2023-05-18T13:08:44.027Z,6.55
2023-05-18T13:11:16.642Z,6.32
2023-05-18T13:14:21.745Z,6.70
2023-05-18T13:16:54.103Z,6.85
2023-05-18T13:19:23.915Z,6.60
2023-05-18T13:22:00.206Z,7.30
2023-05-18T13:24:31.104Z,7.30
2023-05-18T13:27:00.743Z,6.80
2023-05-18T13:29:30.421Z,6.63
2023-05-18T13:32:00.277Z,6.82
2023-05-18T13:34:31.019Z,7.07
2023-05-18T13:37:02.479Z,6.70
2023-05-18T13:39:32.266Z,7.20
2023-05-18T13:42:03.971Z,7.35
2023-05-18T13:44:34.157Z,6.55
2023-05-18T13:47:03.867Z,6.90
2023-05-18T13:49:34.571Z,7.30
2023-05-18T13:52:04.296Z,7.50
2023-05-18T13:54:36.678Z,6.82
2023-05-18T13:57:07.294Z,6.85
2023-05-18T13:59:37.040Z,6.80
2023-05-18T14:02:06.957Z,7.10
2023-05-18T14:04:36.794Z,6.78
2023-05-18T14:07:06.874Z,7.28
2023-05-18T14:09:39.399Z,6.97
2023-05-18T14:12:11.658Z,7.43
2023-05-18T14:14:42.729Z,7.20
2023-05-18T14:17:14.189Z,6.63
2023-05-18T14:19:44.164Z,7.15
2023-05-18T14:22:13.928Z,7.30
2023-05-18T14:24:43.667Z,7.35
2023-05-18T14:27:13.470Z,7.60
2023-05-18T14:29:43.655Z,7.43
2023-05-18T14:32:13.423Z,7.25
2023-05-18T14:34:45.558Z,7.65
2023-05-18T14:37:15.349Z,7.00
2023-05-18T14:39:45.078Z,7.97
2023-05-18T14:42:14.795Z,7.72
2023-05-18T14:44:44.634Z,7.60
2023-05-18T14:47:14.440Z,7.50
2023-05-18T14:49:44.314Z,8.13
2023-05-18T14:52:14.111Z,7.40
2023-05-18T14:54:44.200Z,7.63
2023-05-18T14:57:14.934Z,8.30
2023-05-18T14:59:45.063Z,7.55
2023-05-18T15:02:14.842Z,8.20
2023-05-18T15:04:45.690Z,7.95
2023-05-18T15:07:15.821Z,7.97
2023-05-18T15:09:45.623Z,8.05
2023-05-18T15:12:15.385Z,7.40
2023-05-18T15:14:45.183Z,7.93
2023-05-18T15:17:16.544Z,8.30
2023-05-18T15:19:46.607Z,7.75
2023-05-18T15:22:16.364Z,7.43
2023-05-18T15:24:46.492Z,8.20
2023-05-18T15:27:16.692Z,7.93
2023-05-18T15:29:46.483Z,8.00
2023-05-18T15:32:16.923Z,7.50
2023-05-18T15:34:46.695Z,7.75
2023-05-18T15:37:16.500Z,8.25
2023-05-18T15:39:48.944Z,8.13
2023-05-18T15:42:22.279Z,8.43
2023-05-18T15:44:52.572Z,8.40
2023-05-18T15:47:22.790Z,7.97
2023-05-18T15:49:52.592Z,7.88
2023-05-18T15:52:22.351Z,8.07
2023-05-18T15:54:52.125Z,8.00
2023-05-18T15:57:23.787Z,7.95
2023-05-18T15:59:53.542Z,8.38
2023-05-18T16:02:25.696Z,7.45
2023-05-18T16:04:56.265Z,7.38
2023-05-18T16:07:26.059Z,8.90
2023-05-18T16:09:55.784Z,8.23
2023-05-18T16:12:25.527Z,8.25
2023-05-18T16:14:58.111Z,8.23
2023-05-18T16:17:27.893Z,7.65
2023-05-18T16:19:57.597Z,8.00
2023-05-18T16:22:27.568Z,8.10
2023-05-18T16:24:59.229Z,7.63
2023-05-18T16:27:29.198Z,7.88
2023-05-18T16:29:58.970Z,8.10
2023-05-18T16:32:29.394Z,8.35
2023-05-18T16:34:59.330Z,7.65
2023-05-18T16:37:29.106Z,8.25
2023-05-18T16:39:58.800Z,7.65
2023-05-18T16:42:28.634Z,8.55
2023-05-18T16:44:58.431Z,8.07
2023-05-18T16:47:29.093Z,7.88
2023-05-18T16:49:58.831Z,8.60
2023-05-18T16:52:28.606Z,7.85
2023-05-18T16:54:58.413Z,8.45
2023-05-18T16:57:28.219Z,7.78
2023-05-18T16:59:59.317Z,8.07
2023-05-18T17:02:29.566Z,8.35
2023-05-18T17:05:01.303Z,7.97
2023-05-18T17:07:32.377Z,7.97
2023-05-18T17:10:02.245Z,7.47
2023-05-18T17:12:32.014Z,8.57
2023-05-18T17:15:04.123Z,8.73
2023-05-18T17:17:34.055Z,8.38
2023-05-18T17:20:03.921Z,8.38
2023-05-18T17:22:34.134Z,8.52
2023-05-18T17:25:04.017Z,8.02
2023-05-18T17:27:33.874Z,8.45
2023-05-18T17:30:03.618Z,8.48
2023-05-18T17:32:33.485Z,7.93
2023-05-18T17:35:03.673Z,8.30
2023-05-18T17:37:33.407Z,7.85
2023-05-18T17:40:03.313Z,8.35
2023-05-18T17:42:33.178Z,8.00
2023-05-18T17:45:02.943Z,8.40
2023-05-18T17:47:32.684Z,8.75
2023-05-18T17:50:02.716Z,8.55
2023-05-18T17:52:32.499Z,8.50
2023-05-18T17:55:02.242Z,8.40
2023-05-18T17:57:32.905Z,8.10
2023-05-18T18:00:02.726Z,8.32
2023-05-18T18:02:32.593Z,8.20
2023-05-18T18:05:02.389Z,8.63
2023-05-18T18:07:32.894Z,8.63
2023-05-18T18:10:02.643Z,8.30
2023-05-18T18:12:33.827Z,8.43
2023-05-18T18:15:03.564Z,8.32
2023-05-18T18:17:36.127Z,8.20
2023-05-18T18:20:07.283Z,8.45
2023-05-18T18:22:38.165Z,8.25
2023-05-18T18:25:09.585Z,8.25
2023-05-18T18:27:39.285Z,8.73
2023-05-18T18:30:10.441Z,8.93
2023-05-18T18:32:43.663Z,8.70
2023-05-18T18:35:13.488Z,9.10
2023-05-18T18:37:44.233Z,9.02
2023-05-18T18:40:15.911Z,8.88
2023-05-18T18:42:45.652Z,9.07
2023-05-18T18:45:15.396Z,8.50
2023-05-18T18:47:46.146Z,9.15
2023-05-18T18:50:15.873Z,8.60
2023-05-18T18:52:46.012Z,8.43
2023-05-18T18:55:15.823Z,9.52
2023-05-18T18:57:45.936Z,8.40
2023-05-18T19:00:21.789Z,9.27
2023-05-18T19:02:51.661Z,8.60
2023-05-18T19:05:27.383Z,9.00
2023-05-18T19:07:57.318Z,9.40
2023-05-18T19:10:27.197Z,8.52
2023-05-18T19:12:57.210Z,8.10
2023-05-18T19:15:26.869Z,8.45
2023-05-18T19:17:56.726Z,8.35
2023-05-18T19:20:26.424Z,8.95
2023-05-18T19:22:56.215Z,9.20
2023-05-18T19:25:31.315Z,9.45
2023-05-18T19:30:32.062Z,8.80
2023-05-18T19:33:01.818Z,8.73
2023-05-18T19:35:33.295Z,8.77
2023-05-18T19:38:03.803Z,8.18
2023-05-18T19:40:33.484Z,8.85
2023-05-18T19:43:03.238Z,8.60
2023-05-18T19:45:35.292Z,8.93
2023-05-18T19:48:05.844Z,8.18
2023-05-18T19:50:38.231Z,8.13
2023-05-18T19:53:07.858Z,8.55
2023-05-18T19:55:37.578Z,8.55
2023-05-18T19:58:12.036Z,8.38
2023-05-18T20:00:43.046Z,8.27
2023-05-18T20:03:12.914Z,8.82
2023-05-18T20:05:45.220Z,8.27
2023-05-18T20:08:15.127Z,8.73
2023-05-18T20:10:46.062Z,8.20
2023-05-18T20:13:16.867Z,8.45
2023-05-18T20:15:46.548Z,8.07
2023-05-18T20:18:16.344Z,8.60
2023-05-18T20:20:46.149Z,7.88
2023-05-18T20:23:19.631Z,8.60
2023-05-18T20:25:49.821Z,7.90
2023-05-18T20:28:19.889Z,8.10
2023-05-18T20:30:49.644Z,7.45
2023-05-18T20:33:19.355Z,7.63
2023-05-18T20:35:49.801Z,7.43
2023-05-18T20:38:20.201Z,7.47
2023-05-18T20:40:52.477Z,7.38
2023-05-18T20:43:25.485Z,7.20
2023-05-18T20:45:59.448Z,7.47
2023-05-18T20:48:30.482Z,7.13
2023-05-18T20:51:00.258Z,7.38
2023-05-18T20:53:29.998Z,6.97
2023-05-18T20:56:03.678Z,6.90
2023-05-18T20:58:37.471Z,6.65
2023-05-18T21:01:08.547Z,7.20
2023-05-18T21:03:39.920Z,6.45
2023-05-18T21:06:09.909Z,6.57
2023-05-18T21:08:40.083Z,6.32
2023-05-18T21:11:09.842Z,6.97
2023-05-18T21:13:39.583Z,6.70
2023-05-18T21:16:11.188Z,6.97
2023-05-18T21:18:41.004Z,6.80
2023-05-18T21:21:12.525Z,6.82
2023-05-18T21:23:42.525Z,6.25
2023-05-18T21:26:12.223Z,6.50
2023-05-18T21:28:44.357Z,6.72
2023-05-18T21:31:14.182Z,5.90
2023-05-18T21:33:44.758Z,6.40
2023-05-18T21:36:14.609Z,6.70
2023-05-18T21:38:44.406Z,6.20
2023-05-18T21:41:14.170Z,6.38
2023-05-18T21:43:43.854Z,6.47
2023-05-18T21:46:13.706Z,6.22
2023-05-18T21:48:43.432Z,6.15
2023-05-18T21:51:15.508Z,6.22
2023-05-18T21:53:45.228Z,6.28
2023-05-18T21:56:15.316Z,5.53
2023-05-18T21:58:45.674Z,6.20
2023-05-18T22:01:15.462Z,6.22
2023-05-18T22:03:45.211Z,6.03
2023-05-18T22:06:16.844Z,6.30
2023-05-18T22:08:48.695Z,6.32
2023-05-18T22:11:18.402Z,5.90
2023-05-18T22:13:48.153Z,5.60
2023-05-18T22:16:17.946Z,6.13
2023-05-18T22:18:47.698Z,5.30
2023-05-18T22:21:17.616Z,5.20
2023-05-18T22:23:47.683Z,5.78
2023-05-18T22:26:17.435Z,5.50
2023-05-18T22:28:47.605Z,5.32
2023-05-18T22:31:18.237Z,5.00
2023-05-18T22:33:47.975Z,5.22
2023-05-18T22:36:25.641Z,4.80
2023-05-18T22:38:55.362Z,5.35
2023-05-18T22:41:28.416Z,5.55
2023-05-18T22:43:58.098Z,5.22
2023-05-18T22:46:27.887Z,5.25
2023-05-18T22:48:57.695Z,5.40
2023-05-18T22:51:29.805Z,5.00
2023-05-18T22:53:59.952Z,5.25
2023-05-18T22:56:29.647Z,5.13
2023-05-18T22:58:59.427Z,5.45
2023-05-18T23:01:29.202Z,5.00
2023-05-18T23:04:01.867Z,5.00
2023-05-18T23:06:33.234Z,5.18
2023-05-18T23:09:03.441Z,5.35
2023-05-18T23:11:36.462Z,5.50
2023-05-18T23:14:06.226Z,5.38
2023-05-18T23:16:36.329Z,5.20
2023-05-18T23:19:06.759Z,5.47
2023-05-18T23:21:36.554Z,5.18
2023-05-18T23:24:10.998Z,5.30
2023-05-18T23:26:44.415Z,5.60
2023-05-18T23:29:14.937Z,6.13
2023-05-18T23:31:44.865Z,5.78
2023-05-18T23:34:14.781Z,5.50
2023-05-18T23:36:44.691Z,5.90
2023-05-18T23:39:14.715Z,5.85
2023-05-18T23:41:45.178Z,5.47
2023-05-18T23:44:15.150Z,5.53
2023-05-18T23:46:45.652Z,5.80
2023-05-18T23:49:15.607Z,5.88
2023-05-18T23:51:47.464Z,5.60
2023-05-18T23:54:18.164Z,5.72
2023-05-18T23:56:48.932Z,5.32
2023-05-18T23:59:19.957Z,5.50
